createdAt,value
2023-01-22T00:01:59.393Z,-2.32
2023-01-22T00:04:27.425Z,-2.29
2023-01-22T00:06:55.713Z,-2.25
2023-01-22T00:09:23.727Z,-2.24
2023-01-22T00:11:52.203Z,-2.22
2023-01-22T00:14:23.149Z,-2.22
2023-01-22T00:16:55.988Z,-2.21
2023-01-22T00:19:29.725Z,-2.18
2023-01-22T00:21:57.810Z,-2.17
2023-01-22T00:24:25.835Z,-2.20
2023-01-22T00:26:56.526Z,-2.14
2023-01-22T00:29:24.487Z,-2.10
2023-01-22T00:31:52.935Z,-2.12
2023-01-22T00:34:21.101Z,-2.07
2023-01-22T00:36:50.782Z,-2.07
2023-01-22T00:39:21.219Z,-2.06
2023-01-22T00:41:49.833Z,-2.10
2023-01-22T00:44:20.836Z,-2.07
2023-01-22T00:46:49.023Z,-2.04
2023-01-22T00:49:17.000Z,-2.06
2023-01-22T00:51:46.619Z,-2.08
2023-01-22T00:54:16.179Z,-2.08
2023-01-22T00:56:44.286Z,-2.03
2023-01-22T00:59:12.316Z,-2.03
2023-01-22T01:01:40.466Z,-2.06
2023-01-22T01:04:08.689Z,-2.04
2023-01-22T01:06:39.093Z,-2.08
2023-01-22T01:09:07.721Z,-2.06
2023-01-22T01:11:38.855Z,-2.07
2023-01-22T01:14:06.975Z,-2.02
2023-01-22T01:16:35.965Z,-2.01
2023-01-22T01:19:07.181Z,-1.99
2023-01-22T01:21:36.545Z,-1.90
2023-01-22T01:24:05.163Z,-1.91
2023-01-22T01:26:36.345Z,-1.85
2023-01-22T01:29:10.033Z,-1.88
2023-01-22T01:31:39.612Z,-1.87
2023-01-22T01:34:12.163Z,-1.83
2023-01-22T01:36:48.648Z,-1.80
2023-01-22T01:39:21.224Z,-1.82
2023-01-22T01:41:50.389Z,-1.80
2023-01-22T01:44:23.714Z,-1.75
2023-01-22T01:47:01.322Z,-1.80
2023-01-22T01:49:36.223Z,-1.81
2023-01-22T01:52:09.591Z,-1.81
2023-01-22T01:55:50.908Z,-1.85
2023-01-22T01:58:22.586Z,-1.80
2023-01-22T02:00:55.131Z,-1.81
2023-01-22T02:03:23.871Z,-1.77
2023-01-22T02:05:54.098Z,-1.78
2023-01-22T02:08:22.237Z,-1.77
2023-01-22T02:10:55.048Z,-1.81
2023-01-22T02:13:30.207Z,-1.80
2023-01-22T02:16:00.708Z,-1.75
2023-01-22T02:18:31.148Z,-1.75
2023-01-22T02:21:02.088Z,-1.79
2023-01-22T02:23:33.037Z,-1.78
2023-01-22T02:26:02.047Z,-1.73
2023-01-22T02:28:31.208Z,-1.68
2023-01-22T02:30:59.277Z,-1.69
2023-01-22T02:33:27.363Z,-1.69
2023-01-22T02:35:57.368Z,-1.67
2023-01-22T02:38:26.837Z,-1.65
2023-01-22T02:40:55.597Z,-1.64
2023-01-22T02:43:23.965Z,-1.65
2023-01-22T02:45:53.801Z,-1.66
2023-01-22T02:48:22.057Z,-1.63
2023-01-22T02:50:50.267Z,-1.63
2023-01-22T02:53:18.495Z,-1.61
2023-01-22T02:55:51.655Z,-1.57
2023-01-22T02:58:19.948Z,-1.59
2023-01-22T03:00:47.976Z,-1.55
2023-01-22T03:03:16.366Z,-1.60
2023-01-22T03:05:49.063Z,-1.62
2023-01-22T03:08:18.360Z,-1.63
2023-01-22T03:10:47.269Z,-1.60
2023-01-22T03:13:34.583Z,-1.62
2023-01-22T03:16:22.003Z,-1.60
2023-01-22T03:19:07.783Z,-1.58
2023-01-22T03:21:43.796Z,-1.63
2023-01-22T03:24:11.937Z,-1.62
2023-01-22T03:26:40.058Z,-1.59
2023-01-22T03:29:10.727Z,-1.62
2023-01-22T03:31:40.238Z,-1.63
2023-01-22T03:34:08.407Z,-1.67
2023-01-22T03:36:36.418Z,-1.60
2023-01-22T03:39:07.153Z,-1.60
2023-01-22T03:41:37.728Z,-1.61
2023-01-22T03:44:09.281Z,-1.60
2023-01-22T03:46:41.469Z,-1.58
2023-01-22T03:49:10.384Z,-1.57
2023-01-22T03:51:38.865Z,-1.57
2023-01-22T03:54:07.441Z,-1.58
2023-01-22T03:56:36.746Z,-1.58
2023-01-22T03:59:10.672Z,-1.56
2023-01-22T04:01:38.929Z,-1.54
2023-01-22T04:04:08.227Z,-1.55
2023-01-22T04:06:36.398Z,-1.48
2023-01-22T04:09:04.750Z,-1.47
2023-01-22T04:11:38.384Z,-1.50
2023-01-22T04:14:09.725Z,-1.49
2023-01-22T04:16:41.015Z,-1.47
2023-01-22T04:19:20.933Z,-1.50
2023-01-22T04:21:49.466Z,-1.51
2023-01-22T04:24:17.932Z,-1.49
2023-01-22T04:26:46.545Z,-1.49
2023-01-22T04:29:18.199Z,-1.50
2023-01-22T04:31:47.041Z,-1.51
2023-01-22T04:34:22.332Z,-1.45
2023-01-22T04:37:03.265Z,-1.50
2023-01-22T04:39:34.041Z,-1.50
2023-01-22T04:42:04.370Z,-1.48
2023-01-22T04:44:33.823Z,-1.49
2023-01-22T04:47:04.525Z,-1.47
2023-01-22T04:49:34.368Z,-1.43
2023-01-22T04:52:02.782Z,-1.43
2023-01-22T04:54:31.820Z,-1.42
2023-01-22T04:56:59.953Z,-1.42
2023-01-22T04:59:28.439Z,-1.43
2023-01-22T05:01:58.250Z,-1.45
2023-01-22T05:04:28.708Z,-1.46
2023-01-22T05:06:58.930Z,-1.46
2023-01-22T05:09:27.439Z,-1.45
2023-01-22T05:11:59.662Z,-1.38
2023-01-22T05:14:31.666Z,-1.38
2023-01-22T05:16:59.683Z,-1.34
2023-01-22T05:19:27.760Z,-1.37
2023-01-22T05:21:56.332Z,-1.30
2023-01-22T05:24:25.783Z,-1.37
2023-01-22T05:26:56.569Z,-1.38
2023-01-22T05:29:31.801Z,-1.36
2023-01-22T05:32:10.519Z,-1.38
2023-01-22T05:34:47.668Z,-1.34
2023-01-22T05:37:18.547Z,-1.34
2023-01-22T05:39:48.261Z,-1.28
2023-01-22T05:42:18.601Z,-1.30
2023-01-22T05:44:51.795Z,-1.27
2023-01-22T05:47:23.940Z,-1.30
2023-01-22T05:50:03.147Z,-1.30
2023-01-22T05:52:33.600Z,-1.31
2023-01-22T05:55:02.941Z,-1.26
2023-01-22T05:57:37.996Z,-1.28
2023-01-22T06:00:08.477Z,-1.30
2023-01-22T06:02:44.734Z,-1.25
2023-01-22T06:05:15.435Z,-1.27
2023-01-22T06:07:46.635Z,-1.29
2023-01-22T06:10:17.518Z,-1.28
2023-01-22T06:12:50.146Z,-1.30
2023-01-22T06:15:18.160Z,-1.32
2023-01-22T06:17:51.945Z,-1.29
2023-01-22T06:20:22.916Z,-1.29
2023-01-22T06:22:53.275Z,-1.28
2023-01-22T06:25:22.711Z,-1.29
2023-01-22T06:28:12.042Z,-1.24
2023-01-22T06:30:44.359Z,-1.28
2023-01-22T06:33:15.289Z,-1.31
2023-01-22T06:35:44.193Z,-1.30
2023-01-22T06:38:12.154Z,-1.35
2023-01-22T06:40:41.862Z,-1.29
2023-01-22T06:43:10.832Z,-1.31
2023-01-22T06:45:39.992Z,-1.31
2023-01-22T06:48:10.999Z,-1.28
2023-01-22T06:50:39.759Z,-1.27
2023-01-22T06:53:08.261Z,-1.30
2023-01-22T06:56:51.691Z,-1.33
2023-01-22T06:59:23.279Z,-1.33
2023-01-22T07:01:51.817Z,-1.34
2023-01-22T07:04:19.815Z,-1.35
2023-01-22T07:06:48.118Z,-1.34
2023-01-22T07:09:19.758Z,-1.29
2023-01-22T07:11:48.160Z,-1.34
2023-01-22T07:14:28.903Z,-1.27
2023-01-22T07:17:06.821Z,-1.28
2023-01-22T07:19:34.873Z,-1.29
2023-01-22T07:22:03.260Z,-1.30
2023-01-22T07:24:31.356Z,-1.23
2023-01-22T07:26:59.288Z,-1.24
2023-01-22T07:29:28.570Z,-1.24
2023-01-22T07:31:56.859Z,-1.20
2023-01-22T07:34:25.006Z,-1.20
2023-01-22T07:36:53.002Z,-1.22
2023-01-22T07:39:21.180Z,-1.23
2023-01-22T07:41:51.752Z,-1.19
2023-01-22T07:44:22.178Z,-1.21
2023-01-22T07:46:51.705Z,-1.22
2023-01-22T07:49:19.869Z,-1.22
2023-01-22T07:51:48.108Z,-1.20
2023-01-22T07:54:18.404Z,-1.15
2023-01-22T07:56:46.925Z,-1.12
2023-01-22T07:59:14.914Z,-1.09
2023-01-22T08:01:45.654Z,-1.09
2023-01-22T08:04:15.160Z,-1.13
2023-01-22T08:06:43.330Z,-1.11
2023-01-22T08:09:11.618Z,-1.12
2023-01-22T08:11:39.571Z,-1.07
2023-01-22T08:14:07.803Z,-1.05
2023-01-22T08:16:36.750Z,-1.01
2023-01-22T08:19:07.075Z,-0.95
2023-01-22T08:21:36.385Z,-0.93
2023-01-22T08:24:05.129Z,-0.87
2023-01-22T08:26:35.405Z,-0.89
2023-01-22T08:29:06.440Z,-0.83
2023-01-22T08:31:35.743Z,-0.79
2023-01-22T08:34:08.371Z,-0.78
2023-01-22T08:36:40.267Z,-0.70
2023-01-22T08:39:10.737Z,-0.68
2023-01-22T08:41:38.812Z,-0.68
2023-01-22T08:44:07.078Z,-0.66
2023-01-22T08:46:35.920Z,-0.68
2023-01-22T08:49:04.781Z,-0.64
2023-01-22T08:51:33.367Z,-0.60
2023-01-22T08:54:02.999Z,-0.53
2023-01-22T08:56:30.992Z,-0.56
2023-01-22T08:59:00.767Z,-0.54
2023-01-22T09:01:28.750Z,-0.53
2023-01-22T09:03:56.747Z,-0.43
2023-01-22T09:06:25.064Z,-0.46
2023-01-22T09:08:53.017Z,-0.37
2023-01-22T09:11:22.804Z,-0.36
2023-01-22T09:13:51.117Z,-0.29
2023-01-22T09:16:19.314Z,-0.20
2023-01-22T09:18:47.492Z,-0.15
2023-01-22T09:21:19.608Z,-0.10
2023-01-22T09:23:47.653Z,-0.10
2023-01-22T09:26:15.681Z,-0.13
2023-01-22T09:28:45.100Z,-0.08
2023-01-22T09:31:15.036Z,0.04
2023-01-22T09:33:45.694Z,-0.02
2023-01-22T09:36:15.819Z,0.02
2023-01-22T09:38:44.365Z,0.03
2023-01-22T09:41:20.568Z,0.02
2023-01-22T09:43:54.217Z,0.08
2023-01-22T09:46:29.824Z,0.04
2023-01-22T09:49:08.328Z,0.15
2023-01-22T09:51:36.892Z,0.15
2023-01-22T09:54:08.628Z,0.15
2023-01-22T09:56:44.031Z,0.14
2023-01-22T09:59:16.129Z,0.13
2023-01-22T10:01:46.921Z,0.13
2023-01-22T10:04:35.198Z,0.23
2023-01-22T10:07:07.739Z,0.26
2023-01-22T10:09:40.794Z,0.31
2023-01-22T10:12:15.154Z,0.35
2023-01-22T10:14:44.826Z,0.27
2023-01-22T10:17:20.342Z,0.23
2023-01-22T10:19:51.438Z,0.26
2023-01-22T10:22:22.517Z,0.23
2023-01-22T10:24:50.894Z,0.41
2023-01-22T10:27:23.781Z,0.43
2023-01-22T10:30:01.733Z,0.40
2023-01-22T10:32:32.078Z,0.56
2023-01-22T10:35:02.691Z,0.58
2023-01-22T10:37:31.079Z,0.81
2023-01-22T10:40:01.301Z,0.83
2023-01-22T10:42:31.863Z,0.96
2023-01-22T10:45:16.983Z,0.96
2023-01-22T10:47:45.244Z,1.20
2023-01-22T10:50:17.254Z,1.39
2023-01-22T10:52:49.634Z,1.55
2023-01-22T10:55:22.946Z,1.31
2023-01-22T10:57:55.718Z,1.28
2023-01-22T11:00:39.781Z,1.28
2023-01-22T11:03:22.354Z,1.11
2023-01-22T11:05:56.197Z,0.80
2023-01-22T11:08:30.429Z,0.85
2023-01-22T11:11:04.352Z,0.64
2023-01-22T11:13:40.945Z,0.72
2023-01-22T11:16:17.245Z,0.61
2023-01-22T11:18:52.869Z,0.60
2023-01-22T11:21:29.205Z,0.67
2023-01-22T11:24:02.956Z,0.62
2023-01-22T11:26:44.776Z,0.75
2023-01-22T11:29:25.099Z,0.72
2023-01-22T11:32:04.218Z,0.81
2023-01-22T11:34:45.934Z,0.75
2023-01-22T11:37:16.747Z,0.80
2023-01-22T11:39:56.572Z,0.69
2023-01-22T11:42:37.089Z,0.79
2023-01-22T11:45:31.462Z,0.85
2023-01-22T11:48:24.226Z,0.75
2023-01-22T11:51:04.016Z,0.74
2023-01-22T11:53:57.339Z,0.70
2023-01-22T11:58:05.141Z,0.66
2023-01-22T12:00:52.041Z,0.78
2023-01-22T12:03:57.677Z,0.87
2023-01-22T12:06:48.320Z,0.98
2023-01-22T12:09:24.572Z,1.04
2023-01-22T12:12:03.455Z,1.07
2023-01-22T12:14:47.461Z,1.06
2023-01-22T12:17:32.359Z,0.94
2023-01-22T12:20:27.409Z,1.13
2023-01-22T12:23:00.745Z,1.04
2023-01-22T12:25:38.546Z,1.13
2023-01-22T12:28:16.736Z,1.37
2023-01-22T12:30:53.450Z,1.36
2023-01-22T12:33:27.400Z,1.44
2023-01-22T12:36:01.116Z,1.46
2023-01-22T12:38:39.763Z,1.49
2023-01-22T12:41:19.291Z,1.44
2023-01-22T12:43:53.841Z,1.59
2023-01-22T12:46:30.956Z,1.57
2023-01-22T12:49:06.730Z,1.45
2023-01-22T12:51:40.892Z,1.41
2023-01-22T12:54:20.938Z,1.42
2023-01-22T12:56:49.897Z,1.39
2023-01-22T12:59:43.403Z,1.41
2023-01-22T13:02:36.515Z,1.38
2023-01-22T13:05:18.889Z,1.39
2023-01-22T13:07:48.220Z,1.37
2023-01-22T13:10:33.397Z,1.44
2023-01-22T13:13:23.746Z,1.37
2023-01-22T13:15:56.283Z,1.40
2023-01-22T13:18:28.631Z,1.39
2023-01-22T13:21:05.932Z,1.41
2023-01-22T13:23:36.462Z,1.39
2023-01-22T13:26:05.778Z,1.40
2023-01-22T13:28:34.548Z,1.38
2023-01-22T13:31:05.428Z,1.26
2023-01-22T13:33:35.037Z,1.27
2023-01-22T13:36:11.029Z,1.28
2023-01-22T13:38:39.247Z,1.28
2023-01-22T13:41:13.067Z,1.18
2023-01-22T13:43:44.578Z,1.09
2023-01-22T13:46:15.736Z,1.08
2023-01-22T13:48:45.385Z,1.03
2023-01-22T13:51:21.978Z,1.02
2023-01-22T13:53:54.982Z,0.97
2023-01-22T13:56:26.678Z,1.03
2023-01-22T13:59:06.389Z,0.90
2023-01-22T14:01:36.727Z,0.89
2023-01-22T14:04:07.929Z,1.00
2023-01-22T14:06:49.358Z,0.94
2023-01-22T14:09:26.976Z,0.91
2023-01-22T14:11:55.121Z,0.93
2023-01-22T14:14:23.112Z,1.01
2023-01-22T14:16:51.514Z,0.95
2023-01-22T14:19:20.876Z,1.01
2023-01-22T14:21:49.113Z,1.03
2023-01-22T14:24:17.160Z,0.95
2023-01-22T14:26:45.751Z,0.97
2023-01-22T14:29:13.791Z,1.01
2023-01-22T14:31:44.534Z,1.00
2023-01-22T14:34:15.413Z,0.98
2023-01-22T14:36:47.462Z,1.03
2023-01-22T14:39:15.729Z,0.90
2023-01-22T14:41:44.123Z,0.88
2023-01-22T14:44:12.223Z,0.85
2023-01-22T14:46:41.498Z,0.83
2023-01-22T14:49:09.561Z,0.86
2023-01-22T14:51:37.520Z,0.77
2023-01-22T14:54:07.242Z,0.75
2023-01-22T14:56:37.309Z,0.70
2023-01-22T14:59:05.321Z,0.72
2023-01-22T15:01:35.847Z,0.71
2023-01-22T15:04:06.203Z,0.65
2023-01-22T15:06:34.434Z,0.68
2023-01-22T15:09:04.926Z,0.63
2023-01-22T15:11:34.396Z,0.63
2023-01-22T15:14:05.309Z,0.60
2023-01-22T15:16:38.188Z,0.58
2023-01-22T15:19:06.577Z,0.53
2023-01-22T15:21:34.716Z,0.54
2023-01-22T15:24:05.873Z,0.52
2023-01-22T15:26:38.288Z,0.50
2023-01-22T15:29:11.943Z,0.48
2023-01-22T15:31:40.522Z,0.45
2023-01-22T15:34:08.873Z,0.41
2023-01-22T15:36:39.416Z,0.37
2023-01-22T15:39:10.051Z,0.38
2023-01-22T15:41:41.504Z,0.30
2023-01-22T15:44:13.038Z,0.28
2023-01-22T15:46:42.693Z,0.27
2023-01-22T15:49:12.416Z,0.25
2023-01-22T15:51:41.297Z,0.28
2023-01-22T15:54:15.671Z,0.23
2023-01-22T15:56:47.650Z,0.25
2023-01-22T15:59:15.988Z,0.21
2023-01-22T16:01:44.233Z,0.21
2023-01-22T16:04:14.997Z,0.22
2023-01-22T16:06:43.311Z,0.22
2023-01-22T16:09:11.593Z,0.18
2023-01-22T16:11:39.541Z,0.17
2023-01-22T16:14:09.199Z,0.14
2023-01-22T16:16:39.294Z,0.15
2023-01-22T16:19:10.956Z,0.13
2023-01-22T16:21:41.370Z,0.12
2023-01-22T16:24:10.949Z,0.10
2023-01-22T16:26:39.321Z,0.06
2023-01-22T16:29:08.893Z,0.05
2023-01-22T16:31:38.038Z,0.06
2023-01-22T16:34:11.943Z,0.08
2023-01-22T16:36:43.253Z,0.06
2023-01-22T16:39:18.835Z,0.05
2023-01-22T16:41:49.016Z,0.06
2023-01-22T16:44:20.590Z,0.08
2023-01-22T16:46:52.621Z,0.10
2023-01-22T16:49:22.612Z,0.02
2023-01-22T16:51:53.224Z,0.08
2023-01-22T16:54:23.220Z,0.05
2023-01-22T16:58:52.763Z,-0.03
2023-01-22T17:01:23.012Z,-0.02
2023-01-22T17:03:51.132Z,0.01
2023-01-22T17:06:25.369Z,0.00
2023-01-22T17:08:56.038Z,0.00
2023-01-22T17:11:26.442Z,-0.02
2023-01-22T17:13:56.011Z,-0.04
2023-01-22T17:16:24.223Z,-0.03
2023-01-22T17:18:55.093Z,-0.01
2023-01-22T17:21:26.270Z,0.04
2023-01-22T17:23:57.189Z,0.08
2023-01-22T17:26:27.858Z,0.07
2023-01-22T17:28:59.812Z,0.10
2023-01-22T17:31:31.545Z,0.09
2023-01-22T17:34:04.011Z,0.06
2023-01-22T17:36:32.534Z,0.05
2023-01-22T17:39:01.625Z,0.01
2023-01-22T17:41:30.209Z,0.01
2023-01-22T17:44:01.591Z,-0.03
2023-01-22T17:46:32.428Z,-0.05
2023-01-22T17:49:01.994Z,-0.06
2023-01-22T17:51:31.330Z,-0.08
2023-01-22T17:54:03.192Z,-0.06
2023-01-22T17:56:33.088Z,-0.06
2023-01-22T17:59:06.000Z,-0.08
2023-01-22T18:01:36.680Z,-0.09
2023-01-22T18:04:07.403Z,-0.04
2023-01-22T18:06:36.375Z,-0.06
2023-01-22T18:09:05.601Z,-0.08
2023-01-22T18:11:34.911Z,-0.06
2023-01-22T18:14:09.484Z,-0.09
2023-01-22T18:16:41.923Z,-0.10
2023-01-22T18:19:11.561Z,-0.08
2023-01-22T18:21:40.497Z,-0.06
2023-01-22T18:24:10.344Z,-0.07
2023-01-22T18:26:40.997Z,-0.09
2023-01-22T18:29:12.971Z,-0.05
2023-01-22T18:31:41.835Z,-0.03
2023-01-22T18:34:13.616Z,-0.03
2023-01-22T18:36:42.641Z,-0.05
2023-01-22T18:39:15.577Z,-0.03
2023-01-22T18:41:45.209Z,0.01
2023-01-22T18:44:17.422Z,-0.01
2023-01-22T18:46:48.350Z,0.01
2023-01-22T18:49:19.603Z,0.06
2023-01-22T18:51:48.246Z,0.08
2023-01-22T18:54:17.168Z,0.05
2023-01-22T18:56:45.970Z,0.05
2023-01-22T18:59:15.474Z,0.02
2023-01-22T19:01:50.471Z,0.04
2023-01-22T19:04:21.699Z,0.06
2023-01-22T19:06:55.349Z,0.08
2023-01-22T19:09:24.010Z,0.07
2023-01-22T19:11:53.275Z,0.06
2023-01-22T19:14:23.299Z,0.07
2023-01-22T19:16:53.536Z,0.13
2023-01-22T19:19:24.287Z,0.13
2023-01-22T19:21:55.319Z,0.08
2023-01-22T19:24:27.877Z,0.11
2023-01-22T19:26:56.688Z,0.08
2023-01-22T19:29:27.640Z,0.05
2023-01-22T19:31:57.376Z,0.09
2023-01-22T19:34:30.400Z,0.10
2023-01-22T19:37:02.872Z,0.08
2023-01-22T19:39:31.457Z,0.07
2023-01-22T19:42:02.243Z,0.08
2023-01-22T19:44:35.435Z,0.07
2023-01-22T19:47:03.902Z,0.08
2023-01-22T19:49:32.306Z,0.07
2023-01-22T19:52:02.561Z,0.09
2023-01-22T19:54:33.175Z,0.08
2023-01-22T19:57:04.052Z,0.08
2023-01-22T19:59:32.179Z,0.07
2023-01-22T20:02:01.704Z,0.08
2023-01-22T20:04:35.904Z,0.06
2023-01-22T20:07:05.913Z,0.04
2023-01-22T20:09:35.744Z,0.08
2023-01-22T20:12:05.423Z,0.03
2023-01-22T20:14:35.592Z,0.05
2023-01-22T20:17:05.026Z,0.04
2023-01-22T20:19:38.395Z,0.06
2023-01-22T20:22:07.211Z,0.06
2023-01-22T20:24:40.449Z,0.05
2023-01-22T20:27:09.275Z,0.08
2023-01-22T20:29:39.600Z,0.07
2023-01-22T20:32:09.420Z,0.05
2023-01-22T20:34:42.202Z,0.03
2023-01-22T20:37:10.406Z,0.01
2023-01-22T20:39:38.857Z,0.03
2023-01-22T20:42:07.237Z,-0.03
2023-01-22T20:44:35.842Z,-0.03
2023-01-22T20:47:04.178Z,-0.05
2023-01-22T20:49:34.137Z,-0.02
2023-01-22T20:52:02.399Z,-0.05
2023-01-22T20:54:32.163Z,-0.05
2023-01-22T20:57:00.444Z,-0.04
2023-01-22T20:59:28.766Z,-0.08
2023-01-22T21:01:58.915Z,-0.06
2023-01-22T21:04:27.429Z,-0.09
2023-01-22T21:06:57.999Z,-0.06
2023-01-22T21:09:28.134Z,-0.06
2023-01-22T21:12:00.141Z,-0.10
2023-01-22T21:14:30.431Z,-0.08
2023-01-22T21:16:58.610Z,-0.05
2023-01-22T21:19:29.668Z,-0.06
2023-01-22T21:22:00.538Z,-0.02
2023-01-22T21:24:30.780Z,-0.06
2023-01-22T21:27:01.597Z,-0.07
2023-01-22T21:29:39.136Z,-0.08
2023-01-22T21:32:09.466Z,-0.02
2023-01-22T21:34:40.560Z,-0.05
2023-01-22T21:37:10.442Z,-0.07
2023-01-22T21:39:45.153Z,-0.08
2023-01-22T21:42:31.488Z,-0.11
2023-01-22T21:45:16.941Z,-0.12
2023-01-22T21:47:45.256Z,-0.09
2023-01-22T21:50:13.889Z,-0.09
2023-01-22T21:52:45.258Z,-0.08
2023-01-22T21:55:14.996Z,-0.10
2023-01-22T22:00:00.692Z,-0.12
2023-01-22T22:02:28.772Z,-0.16
2023-01-22T22:04:57.000Z,-0.17
2023-01-22T22:07:27.982Z,-0.14
2023-01-22T22:09:55.921Z,-0.15
2023-01-22T22:12:25.664Z,-0.18
2023-01-22T22:14:56.467Z,-0.16
2023-01-22T22:17:28.449Z,-0.17
2023-01-22T22:19:57.250Z,-0.16
2023-01-22T22:22:25.383Z,-0.19
2023-01-22T22:24:53.753Z,-0.20
2023-01-22T22:27:21.815Z,-0.19
2023-01-22T22:29:49.941Z,-0.16
2023-01-22T22:32:17.987Z,-0.20
2023-01-22T22:34:47.577Z,-0.23
2023-01-22T22:37:16.049Z,-0.26
2023-01-22T22:39:44.222Z,-0.27
2023-01-22T22:42:14.980Z,-0.30
2023-01-22T22:44:46.203Z,-0.32
2023-01-22T22:47:14.731Z,-0.35
2023-01-22T22:49:45.478Z,-0.36
2023-01-22T22:52:15.425Z,-0.37
2023-01-22T22:54:43.993Z,-0.35
2023-01-22T22:57:11.988Z,-0.34
2023-01-22T22:59:40.276Z,-0.37
2023-01-22T23:02:09.287Z,-0.38
2023-01-22T23:04:40.158Z,-0.38
2023-01-22T23:07:10.929Z,-0.41
2023-01-22T23:09:40.840Z,-0.44
2023-01-22T23:12:09.186Z,-0.44
2023-01-22T23:14:37.740Z,-0.45
2023-01-22T23:17:08.140Z,-0.49
2023-01-22T23:19:39.200Z,-0.50
2023-01-22T23:22:07.412Z,-0.53
2023-01-22T23:24:35.425Z,-0.58
2023-01-22T23:27:05.364Z,-0.56
2023-01-22T23:29:33.451Z,-0.60
2023-01-22T23:32:01.555Z,-0.59
2023-01-22T23:34:30.091Z,-0.59
2023-01-22T23:37:00.481Z,-0.59
2023-01-22T23:39:29.087Z,-0.59
2023-01-22T23:41:59.465Z,-0.59
2023-01-22T23:44:29.389Z,-0.63
2023-01-22T23:46:59.854Z,-0.60
2023-01-22T23:49:28.074Z,-0.59
2023-01-22T23:51:58.734Z,-0.60
2023-01-22T23:54:26.647Z,-0.62
2023-01-22T23:56:54.985Z,-0.64
2023-01-22T23:59:25.232Z,-0.65
